My Meet Scores
Kaitlyn Schwab, Infinity Gymnastics Academy - MyMeetScores.com
Top100 | Top Teams | Upcoming Meets | Completed Meets | Latest | Add Scores | Help| Support | Bookmark and Share

Kaitlyn Schwab, Infinity Gymnastics Academy
Personal Bests
LevelVault BarsBeamFloorAA
49.3509.400 8.9259.20036.875
59.4759.500 9.4509.12537.225
79.7259.800 9.5009.70038.175
89.4009.550 9.3759.35037.150
Meet Scores
Date Meet Team Session Level Division Vault Bars Beam Floor AA
2018-04-20 2018 Region 5 Levels 7/8 Championships Infinity Gymnastics Academy 09B 8 Jr B1 9.250 12T 9.075 22 9.200 14T 9.125 22 36.650 17
2018-03-23 Illinois Level 7 & 8 State Competition Infinity Gymnastics Academy 03 8 Jr B 9.400 5T 9.200 13 9.350 4T 9.200 16T 37.150 6
2018-03-09 Lucky Invitational Infinity Gymnastics Academy A09 8 Jr A 8.575 12 9.475 6 9.375 4T 9.300 11T 36.725 7
2018-02-23 Kinetic Classic Infinity Gymnastics Academy 2 8 Younger 8.875 18T 9.550 5T 9.150 8T 9.250 14 36.825 10
2018-01-18 Circle Of Stars Gymnastics Invitational Infinity Gymnastics Academy A2 8 Jr A 8.275 4 9.350 2 8.800 4 8.800 5T 35.225 3
2018-01-12 St Jude Benefit Meet Infinity Gymnastics Academy 2B 8 JrA 8.400 7 9.400 1 8.850 8T 9.350 2 36.000 5
2017-12-14 2017 Women's Hawaiian Pineapple Classic Infinity Gymnastics Academy 5A 8 Ages11U 8.300 5 9.475 1 9.175 5 9.200 5 36.150 2
2017-04-21 2017 Region 5 Levels 7 & 8 Championships Infinity Gymnastics Academy 14 7 Jr A 2 9.450 7T 9.800 1 9.375 5T 9.400 5T 38.025 1
2017-03-23 2017 Illinois Level 6, 7 State Championship Infinity Gymnastics Academy 1 7 Jr B 9.575 2* 9.700 2T 9.400 8 9.500 12T 38.175 3T
2017-03-10 Lucky Invitational Infinity Gymnastics Academy A07 7 Jr A 9.400 3 9.000 13 9.425 5T 9.425 8 37.250 7T
2017-02-24 Houston National Invitational - Sea Wall Infinity Gymnastics Academy SW1 7 Jr A 9.450 4 9.675 2T 9.325 5 9.700 5T 38.150 3
2017-02-17 Midwest Open Infinity Gymnastics Academy 6 7 Jr B 9.550 4T 9.575 2 9.400 7T 9.450 5T 37.975 4
2017-02-10 IGI Chicago Style Gymnastics Meet Infinity Gymnastics Academy 123S 7 Jr 9.400 13 9.650 2 9.350 13 9.650 3 38.050 3
2017-01-27 Circle Of Stars Gymnastics Invitational Infinity Gymnastics Academy B1 7 Jr A 9.575 3 9.375 4 9.050 7 9.150 6 37.150 3
2017-01-20 2017 Bravo Classic Infinity Gymnastics Academy 12A 7 7-10yrs 9.725 1 9.550 3 9.375 9 9.425 13 38.075 4T
2017-01-13 St Jude Benefit Meet Infinity Gymnastics Academy 3B 7 Jr A 9.275 6 9.700 1 9.500 6T 9.575 5 38.050 3
2015-02-27 Elk Grove Gymnastics Invite Premier Gymnastics Academy 4 5 7-11yrs 9.200 5T 9.500 2 9.450 3 9.075 5 37.225 3
2015-02-14 2015 Great Western Invitational Premier Gymnastics Academy 6 5 Pony 9.475 1 9.350 4 9.050 8 9.075 8T 36.950 5
2015-01-09 Leendas Island Adventure Premier Gymnastics Academy G3 5 9 and Unde 8.850 5 8.900 1T 9.075 4 9.125 2 35.950 2
2014-12-12 Justin Spring Invitational Premier Gymnastics Academy All 5 Jr A 9.050 4 9.350 1 8.825 6 9.075 5 36.300 2
2014-03-13 2014 Illinois Level 4 State Meet Premier Gymnastics Academy 4 Child.A 9.350 2 9.400 5 8.925 21 9.200 15 36.875 9
2014-02-21 EGGS Invite Premier Gymnastics Academy 1 4 6-9yrs 8.925 7 9.200 3 8.100 23 9.075 8 35.300 8
2013-12-20 2013 Aspire Classic Premier Gymnastics Academy 4 4 6-8yrs 8.425 3T 9.000 3 8.500 5 8.800 7T 34.725 3

www.lazysuits.com